createdAt,value
2023-04-11T00:00:56.426Z,531.00
2023-04-11T00:01:56.579Z,531.00
2023-04-11T00:02:56.717Z,530.00
2023-04-11T00:03:56.614Z,532.00
2023-04-11T00:04:56.564Z,533.00
2023-04-11T00:05:56.566Z,530.00
2023-04-11T00:06:56.600Z,535.00
2023-04-11T00:07:56.631Z,533.00
2023-04-11T00:08:57.046Z,533.00
2023-04-11T00:09:56.663Z,533.00
2023-04-11T00:10:56.695Z,529.00
2023-04-11T00:11:56.715Z,531.00
2023-04-11T00:12:56.977Z,534.00
2023-04-11T00:13:56.769Z,527.00
2023-04-11T00:14:56.785Z,530.00
2023-04-11T00:15:56.881Z,526.00
2023-04-11T00:16:56.910Z,528.00
2023-04-11T00:17:56.900Z,525.00
2023-04-11T00:18:57.096Z,527.00
2023-04-11T00:19:56.931Z,526.00
2023-04-11T00:20:56.966Z,523.00
2023-04-11T00:21:56.988Z,526.00
2023-04-11T00:22:57.014Z,521.00
2023-04-11T00:23:57.088Z,525.00
2023-04-11T00:24:57.076Z,523.00
2023-04-11T00:25:57.103Z,521.00
2023-04-11T00:26:57.149Z,520.00
2023-04-11T00:27:57.166Z,528.00
2023-04-11T00:28:57.265Z,523.00
2023-04-11T00:29:57.222Z,519.00
2023-04-11T00:30:57.243Z,529.00
2023-04-11T00:31:57.303Z,529.00
2023-04-11T00:32:57.330Z,525.00
2023-04-11T00:33:57.320Z,529.00
2023-04-11T00:34:57.356Z,526.00
2023-04-11T00:35:57.443Z,526.00
2023-04-11T00:36:57.482Z,528.00
2023-04-11T00:37:57.434Z,524.00
2023-04-11T00:38:57.659Z,529.00
2023-04-11T00:39:57.486Z,533.00
2023-04-11T00:40:57.534Z,520.00
2023-04-11T00:41:57.576Z,523.00
2023-04-11T00:42:57.624Z,524.00
2023-04-11T00:43:57.744Z,530.00
2023-04-11T00:44:57.657Z,527.00
2023-04-11T00:45:57.687Z,529.00
2023-04-11T00:46:57.676Z,529.00
2023-04-11T00:47:57.734Z,528.00
2023-04-11T00:48:58.047Z,528.00
2023-04-11T00:49:57.754Z,528.00
2023-04-11T00:50:57.774Z,529.00
2023-04-11T00:51:57.796Z,525.00
2023-04-11T00:52:57.814Z,534.00
2023-04-11T00:53:57.853Z,530.00
2023-04-11T00:54:57.874Z,530.00
2023-04-11T00:55:57.902Z,535.00
2023-04-11T00:56:57.930Z,537.00
2023-04-11T00:57:57.951Z,532.00
2023-04-11T00:58:57.978Z,539.00
2023-04-11T00:59:58.001Z,534.00
2023-04-11T01:00:58.036Z,528.00
2023-04-11T01:01:58.191Z,529.00
2023-04-11T01:02:58.186Z,537.00
2023-04-11T01:03:58.166Z,531.00
2023-04-11T01:04:58.133Z,539.00
2023-04-11T01:05:58.151Z,539.00
2023-04-11T01:06:58.177Z,537.00
2023-04-11T01:07:58.217Z,539.00
2023-04-11T01:08:58.406Z,539.00
2023-04-11T01:09:58.272Z,538.00
2023-04-11T01:10:58.298Z,538.00
2023-04-11T01:11:58.333Z,535.00
2023-04-11T01:12:58.360Z,542.00
2023-04-11T01:13:58.389Z,538.00
2023-04-11T01:14:58.441Z,544.00
2023-04-11T01:15:58.446Z,543.00
2023-04-11T01:16:58.552Z,541.00
2023-04-11T01:17:58.579Z,535.00
2023-04-11T01:18:58.531Z,533.00
2023-04-11T01:19:58.556Z,545.00
2023-04-11T01:20:58.604Z,539.00
2023-04-11T01:21:58.621Z,537.00
2023-04-11T01:22:58.639Z,541.00
2023-04-11T01:23:58.674Z,545.00
2023-04-11T01:24:58.706Z,542.00
2023-04-11T01:25:58.736Z,540.00
2023-04-11T01:26:58.774Z,537.00
2023-04-11T01:27:58.806Z,544.00
2023-04-11T01:28:58.833Z,538.00
2023-04-11T01:29:58.852Z,542.00
2023-04-11T01:30:58.891Z,537.00
2023-04-11T01:31:58.910Z,536.00
2023-04-11T01:32:58.972Z,543.00
2023-04-11T01:33:58.865Z,536.00
2023-04-11T01:34:58.839Z,539.00
2023-04-11T01:35:58.856Z,545.00
2023-04-11T01:36:58.809Z,543.00
2023-04-11T01:37:58.802Z,541.00
2023-04-11T01:38:58.771Z,543.00
2023-04-11T01:39:58.764Z,538.00
2023-04-11T01:40:58.774Z,542.00
2023-04-11T01:41:58.763Z,540.00
2023-04-11T01:42:58.745Z,544.00
2023-04-11T01:43:58.723Z,545.00
2023-04-11T01:44:58.704Z,537.00
2023-04-11T01:45:58.668Z,539.00
2023-04-11T01:46:58.680Z,545.00
2023-04-11T01:47:58.746Z,544.00
2023-04-11T01:48:58.862Z,547.00
2023-04-11T01:49:58.646Z,541.00
2023-04-11T01:50:58.611Z,546.00
2023-04-11T01:51:58.593Z,537.00
2023-04-11T01:52:58.585Z,547.00
2023-04-11T01:53:58.554Z,546.00
2023-04-11T01:54:58.537Z,540.00
2023-04-11T01:55:58.498Z,546.00
2023-04-11T01:56:58.485Z,537.00
2023-04-11T01:57:58.465Z,545.00
2023-04-11T01:58:58.431Z,540.00
2023-04-11T01:59:58.414Z,540.00
2023-04-11T02:00:58.412Z,542.00
2023-04-11T02:01:58.482Z,540.00
2023-04-11T02:02:58.495Z,540.00
2023-04-11T02:03:58.469Z,547.00
2023-04-11T02:04:58.324Z,546.00
2023-04-11T02:05:58.300Z,544.00
2023-04-11T02:06:58.279Z,545.00
2023-04-11T02:07:58.257Z,544.00
2023-04-11T02:08:58.247Z,547.00
2023-04-11T02:09:58.237Z,543.00
2023-04-11T02:10:58.191Z,541.00
2023-04-11T02:11:58.164Z,547.00
2023-04-11T02:12:58.154Z,543.00
2023-04-11T02:13:58.118Z,541.00
2023-04-11T02:14:58.090Z,546.00
2023-04-11T02:15:58.100Z,546.00
2023-04-11T02:16:58.037Z,539.00
2023-04-11T02:17:58.055Z,539.00
2023-04-11T02:18:58.241Z,543.00
2023-04-11T02:19:58.059Z,533.00
2023-04-11T02:20:57.956Z,541.00
2023-04-11T02:21:57.925Z,540.00
2023-04-11T02:22:57.903Z,548.00
2023-04-11T02:23:58.775Z,543.00
2023-04-11T02:24:57.864Z,539.00
2023-04-11T02:25:57.848Z,544.00
2023-04-11T02:26:57.815Z,542.00
2023-04-11T02:27:57.850Z,535.00
2023-04-11T02:28:57.892Z,539.00
2023-04-11T02:29:57.761Z,542.00
2023-04-11T02:30:57.807Z,537.00
2023-04-11T02:31:57.748Z,540.00
2023-04-11T02:32:57.703Z,543.00
2023-04-11T02:33:57.656Z,536.00
2023-04-11T02:34:57.633Z,540.00
2023-04-11T02:35:57.614Z,543.00
2023-04-11T02:36:57.589Z,543.00
2023-04-11T02:37:57.560Z,536.00
2023-04-11T02:38:57.644Z,544.00
2023-04-11T02:39:57.545Z,539.00
2023-04-11T02:40:57.485Z,538.00
2023-04-11T02:41:57.532Z,540.00
2023-04-11T02:42:57.444Z,538.00
2023-04-11T02:43:57.414Z,538.00
2023-04-11T02:44:57.398Z,537.00
2023-04-11T02:46:09.503Z,541.00
2023-04-11T02:46:58.349Z,541.00
2023-04-11T02:47:57.309Z,541.00
2023-04-11T02:48:57.515Z,542.00
2023-04-11T02:49:57.215Z,540.00
2023-04-11T02:50:57.181Z,534.00
2023-04-11T02:51:57.161Z,535.00
2023-04-11T02:52:57.138Z,537.00
2023-04-11T02:53:57.106Z,531.00
2023-04-11T02:54:57.072Z,535.00
2023-04-11T02:55:57.082Z,538.00
2023-04-11T02:56:57.009Z,538.00
2023-04-11T02:57:56.968Z,539.00
2023-04-11T02:58:57.186Z,533.00
2023-04-11T02:59:56.899Z,536.00
2023-04-11T03:00:56.863Z,534.00
2023-04-11T03:01:56.880Z,533.00
2023-04-11T03:02:56.881Z,534.00
2023-04-11T03:03:56.817Z,536.00
2023-04-11T03:04:56.722Z,537.00
2023-04-11T03:05:56.684Z,539.00
2023-04-11T03:06:56.649Z,531.00
2023-04-11T03:07:56.621Z,532.00
2023-04-11T03:08:56.985Z,539.00
2023-04-11T03:09:56.534Z,536.00
2023-04-11T03:10:56.492Z,536.00
2023-04-11T03:11:56.448Z,534.00
2023-04-11T03:12:56.395Z,536.00
2023-04-11T03:13:56.379Z,539.00
2023-04-11T03:14:56.339Z,534.00
2023-04-11T03:15:56.326Z,537.00
2023-04-11T03:16:56.276Z,530.00
2023-04-11T03:17:56.274Z,535.00
2023-04-11T03:18:56.476Z,535.00
2023-04-11T03:19:56.165Z,534.00
2023-04-11T03:20:56.221Z,536.00
2023-04-11T03:21:56.102Z,536.00
2023-04-11T03:22:56.073Z,529.00
2023-04-11T03:23:56.044Z,531.00
2023-04-11T03:24:56.004Z,535.00
2023-04-11T03:25:55.976Z,531.00
2023-04-11T03:26:55.945Z,535.00
2023-04-11T03:27:55.916Z,538.00
2023-04-11T03:28:55.990Z,534.00
2023-04-11T03:29:55.858Z,537.00
2023-04-11T03:30:55.850Z,531.00
2023-04-11T03:31:55.808Z,537.00
2023-04-11T03:32:55.833Z,534.00
2023-04-11T03:33:55.751Z,529.00
2023-04-11T03:34:55.729Z,531.00
2023-04-11T03:35:55.744Z,532.00
2023-04-11T03:36:55.650Z,532.00
2023-04-11T03:37:55.624Z,534.00
2023-04-11T03:38:55.840Z,531.00
2023-04-11T03:39:55.562Z,532.00
2023-04-11T03:40:55.533Z,535.00
2023-04-11T03:41:55.499Z,524.00
2023-04-11T03:42:55.478Z,532.00
2023-04-11T03:43:55.447Z,537.00
2023-04-11T03:44:55.404Z,533.00
2023-04-11T03:45:55.371Z,537.00
2023-04-11T03:46:55.477Z,533.00
2023-04-11T03:47:55.348Z,532.00
2023-04-11T03:48:55.509Z,535.00
2023-04-11T03:49:55.240Z,537.00
2023-04-11T03:50:55.202Z,529.00
2023-04-11T03:51:55.179Z,531.00
2023-04-11T03:52:55.139Z,532.00
2023-04-11T03:53:55.121Z,536.00
2023-04-11T03:54:55.080Z,527.00
2023-04-11T03:55:55.053Z,540.00
2023-04-11T03:56:55.036Z,533.00
2023-04-11T03:57:54.993Z,531.00
2023-04-11T03:58:55.181Z,532.00
2023-04-11T03:59:54.964Z,532.00
2023-04-11T04:00:54.943Z,529.00
2023-04-11T04:01:55.025Z,534.00
2023-04-11T04:02:55.065Z,537.00
2023-04-11T04:03:55.299Z,537.00
2023-04-11T04:04:55.016Z,537.00
2023-04-11T04:05:54.849Z,534.00
2023-04-11T04:06:54.830Z,528.00
2023-04-11T04:07:55.910Z,541.00
2023-04-11T04:08:54.792Z,538.00
2023-04-11T04:09:54.766Z,531.00
2023-04-11T04:10:54.756Z,531.00
2023-04-11T04:11:54.727Z,536.00
2023-04-11T04:12:54.712Z,534.00
2023-04-11T04:13:54.932Z,535.00
2023-04-11T04:14:54.668Z,532.00
2023-04-11T04:15:54.675Z,535.00
2023-04-11T04:16:54.727Z,538.00
2023-04-11T04:17:54.763Z,530.00
2023-04-11T04:18:54.600Z,536.00
2023-04-11T04:19:54.567Z,534.00
2023-04-11T04:20:54.563Z,537.00
2023-04-11T04:21:54.529Z,535.00
2023-04-11T04:22:54.492Z,531.00
2023-04-11T04:23:54.697Z,535.00
2023-04-11T04:24:54.448Z,535.00
2023-04-11T04:25:54.424Z,532.00
2023-04-11T04:26:54.401Z,533.00
2023-04-11T04:27:54.370Z,534.00
2023-04-11T04:28:54.361Z,531.00
2023-04-11T04:29:56.361Z,535.00
2023-04-11T04:30:55.310Z,535.00
2023-04-11T04:31:54.306Z,535.00
2023-04-11T04:32:54.281Z,536.00
2023-04-11T04:33:54.352Z,537.00
2023-04-11T04:34:54.199Z,537.00
2023-04-11T04:35:54.191Z,528.00
2023-04-11T04:36:54.124Z,532.00
2023-04-11T04:37:54.209Z,525.00
2023-04-11T04:38:54.073Z,524.00
2023-04-11T04:39:54.048Z,528.00
2023-04-11T04:40:54.001Z,531.00
2023-04-11T04:41:53.977Z,532.00
2023-04-11T04:42:53.930Z,531.00
2023-04-11T04:43:54.064Z,528.00
2023-04-11T04:44:53.861Z,531.00
2023-04-11T04:45:53.907Z,535.00
2023-04-11T04:46:53.792Z,534.00
2023-04-11T04:47:53.801Z,530.00
2023-04-11T04:48:53.723Z,528.00
2023-04-11T04:49:53.690Z,535.00
2023-04-11T04:50:53.686Z,528.00
2023-04-11T04:51:53.633Z,523.00
2023-04-11T04:52:53.594Z,532.00
2023-04-11T04:53:53.737Z,534.00
2023-04-11T04:54:53.521Z,532.00
2023-04-11T04:55:53.491Z,527.00
2023-04-11T04:56:53.468Z,527.00
2023-04-11T04:57:53.450Z,526.00
2023-04-11T04:58:53.410Z,523.00
2023-04-11T04:59:53.382Z,532.00
2023-04-11T05:00:53.368Z,530.00
2023-04-11T05:01:53.577Z,533.00
2023-04-11T05:02:53.353Z,532.00
2023-04-11T05:03:53.356Z,525.00
2023-04-11T05:04:53.220Z,522.00
2023-04-11T05:05:53.202Z,529.00
2023-04-11T05:06:53.175Z,528.00
2023-04-11T05:07:53.126Z,528.00
2023-04-11T05:08:53.087Z,525.00
2023-04-11T05:09:53.052Z,523.00
2023-04-11T05:10:53.016Z,528.00
2023-04-11T05:11:52.984Z,520.00
2023-04-11T05:12:52.959Z,531.00
2023-04-11T05:13:52.922Z,534.00
2023-04-11T05:14:52.885Z,526.00
2023-04-11T05:15:52.867Z,532.00
2023-04-11T05:16:52.870Z,528.00
2023-04-11T05:17:52.847Z,532.00
2023-04-11T05:18:52.747Z,532.00
2023-04-11T05:19:52.719Z,527.00
2023-04-11T05:20:52.700Z,531.00
2023-04-11T05:21:52.657Z,530.00
2023-04-11T05:22:52.635Z,530.00
2023-04-11T05:23:52.601Z,530.00
2023-04-11T05:24:52.582Z,526.00
2023-04-11T05:25:52.531Z,522.00
2023-04-11T05:26:52.499Z,524.00
2023-04-11T05:27:52.471Z,531.00
2023-04-11T05:28:52.527Z,535.00
2023-04-11T05:29:52.398Z,542.00
2023-04-11T05:30:52.407Z,548.00
2023-04-11T05:31:52.347Z,563.00
2023-04-11T05:32:52.381Z,582.00
2023-04-11T05:33:52.278Z,596.00
2023-04-11T05:34:52.249Z,608.00
2023-04-11T05:35:52.274Z,620.00
2023-04-11T05:36:52.192Z,630.00
2023-04-11T05:37:52.152Z,649.00
2023-04-11T05:38:52.202Z,665.00
2023-04-11T05:39:52.084Z,712.00
2023-04-11T05:40:52.052Z,738.00
2023-04-11T05:41:52.003Z,782.00
2023-04-11T05:42:51.961Z,831.00
2023-04-11T05:43:51.920Z,876.00
2023-04-11T05:44:54.800Z,922.00
2023-04-11T05:45:51.846Z,990.00
2023-04-11T05:46:51.776Z,1012.00
2023-04-11T05:47:51.804Z,1044.00
2023-04-11T05:48:51.706Z,1101.00
2023-04-11T05:49:51.665Z,1158.00
2023-04-11T05:50:51.636Z,1191.00
2023-04-11T05:51:51.593Z,1222.00
2023-04-11T05:52:51.533Z,1257.00
2023-04-11T05:53:51.488Z,1303.00
2023-04-11T05:54:51.446Z,1348.00
2023-04-11T05:55:51.388Z,1404.00
2023-04-11T05:56:51.345Z,1430.00
2023-04-11T05:57:51.297Z,960.00
2023-04-11T05:58:51.257Z,867.00
2023-04-11T05:59:51.221Z,719.00
2023-04-11T06:00:51.192Z,605.00
2023-04-11T06:01:51.182Z,531.00
2023-04-11T06:02:51.221Z,499.00
2023-04-11T06:03:51.910Z,502.00
2023-04-11T06:04:51.094Z,546.00
2023-04-11T06:05:51.012Z,619.00
2023-04-11T06:06:50.967Z,712.00
2023-04-11T06:07:50.935Z,763.00
2023-04-11T06:08:50.901Z,815.00
2023-04-11T06:09:50.867Z,858.00
2023-04-11T06:10:50.823Z,916.00
2023-04-11T06:11:50.778Z,982.00
2023-04-11T06:12:50.738Z,1010.00
2023-04-11T06:13:50.695Z,1040.00
2023-04-11T06:14:50.644Z,1072.00
2023-04-11T06:15:50.629Z,1107.00
2023-04-11T06:16:50.580Z,1133.00
2023-04-11T06:17:50.615Z,1160.00
2023-04-11T06:18:50.501Z,1213.00
2023-04-11T06:19:50.465Z,1236.00
2023-04-11T06:20:50.427Z,1269.00
2023-04-11T06:21:50.389Z,1257.00
2023-04-11T06:22:50.353Z,1235.00
2023-04-11T06:23:50.705Z,1294.00
2023-04-11T06:24:50.266Z,1325.00
2023-04-11T06:25:50.239Z,1368.00
2023-04-11T06:26:50.197Z,1389.00
2023-04-11T06:27:50.170Z,1389.00
2023-04-11T06:28:50.792Z,1353.00
2023-04-11T06:29:50.106Z,961.00
2023-04-11T06:30:50.117Z,708.00
2023-04-11T06:31:50.203Z,638.00
2023-04-11T06:32:50.187Z,607.00
2023-04-11T06:33:50.018Z,587.00
2023-04-11T06:34:49.981Z,579.00
2023-04-11T06:35:50.845Z,581.00
2023-04-11T06:36:49.957Z,580.00
2023-04-11T06:37:49.923Z,612.00
2023-04-11T06:38:49.891Z,653.00
2023-04-11T06:39:49.868Z,687.00
2023-04-11T06:40:49.857Z,815.00
2023-04-11T06:41:49.868Z,941.00
2023-04-11T06:42:49.879Z,992.00
2023-04-11T06:43:49.864Z,1038.00
2023-04-11T06:44:50.344Z,1061.00
2023-04-11T06:45:49.884Z,1070.00
2023-04-11T06:46:49.876Z,1090.00
2023-04-11T06:47:49.827Z,1122.00
2023-04-11T06:48:49.775Z,1134.00
2023-04-11T06:49:49.750Z,1156.00
2023-04-11T06:50:49.722Z,1165.00
2023-04-11T06:51:49.698Z,1115.00
2023-04-11T06:52:49.684Z,871.00
2023-04-11T06:53:49.689Z,690.00
2023-04-11T06:54:49.736Z,629.00
2023-04-11T06:55:49.744Z,593.00
2023-04-11T06:56:49.725Z,555.00
2023-04-11T06:57:49.796Z,512.00
2023-04-11T06:58:49.745Z,500.00
2023-04-11T06:59:49.767Z,500.00
2023-04-11T07:00:49.790Z,507.00
2023-04-11T07:01:49.981Z,518.00
2023-04-11T07:02:50.175Z,529.00
2023-04-11T07:03:50.999Z,530.00
2023-04-11T07:04:49.913Z,533.00
2023-04-11T07:05:50.307Z,543.00
2023-04-11T07:06:49.783Z,559.00
2023-04-11T07:07:49.774Z,591.00
2023-04-11T07:08:49.737Z,599.00
2023-04-11T07:09:49.723Z,602.00
2023-04-11T07:10:49.735Z,615.00
2023-04-11T07:11:49.629Z,624.00
2023-04-11T07:12:49.602Z,637.00
2023-04-11T07:13:49.566Z,643.00
2023-04-11T07:14:49.538Z,660.00
2023-04-11T07:15:49.572Z,682.00
2023-04-11T07:16:49.495Z,728.00
2023-04-11T07:17:51.434Z,754.00
2023-04-11T07:18:49.447Z,803.00
2023-04-11T07:19:49.397Z,833.00
2023-04-11T07:20:49.360Z,855.00
2023-04-11T07:21:49.338Z,915.00
2023-04-11T07:22:49.292Z,949.00
2023-04-11T07:23:49.250Z,974.00
2023-04-11T07:24:49.222Z,996.00
2023-04-11T07:25:49.191Z,1030.00
2023-04-11T07:26:49.158Z,1033.00
2023-04-11T07:27:49.130Z,1060.00
2023-04-11T07:28:49.085Z,1076.00
2023-04-11T07:29:49.065Z,1085.00
2023-04-11T07:30:49.089Z,1107.00
2023-04-11T07:31:49.022Z,1096.00
2023-04-11T07:32:49.029Z,1117.00
2023-04-11T07:33:48.919Z,1111.00
2023-04-11T07:34:48.893Z,1119.00
2023-04-11T07:35:48.908Z,1119.00
2023-04-11T07:36:48.812Z,1128.00
2023-04-11T07:37:48.783Z,1132.00
2023-04-11T07:38:48.747Z,1144.00
2023-04-11T07:39:48.708Z,1147.00
2023-04-11T07:40:48.681Z,1140.00
2023-04-11T07:41:48.647Z,1146.00
2023-04-11T07:42:48.602Z,1126.00
2023-04-11T07:43:48.578Z,1143.00
2023-04-11T07:44:48.536Z,1142.00
2023-04-11T07:45:48.547Z,1135.00
2023-04-11T07:46:48.472Z,1133.00
2023-04-11T07:47:48.465Z,1129.00
2023-04-11T07:48:48.399Z,1132.00
2023-04-11T07:49:48.378Z,1126.00
2023-04-11T07:50:48.320Z,1132.00
2023-04-11T07:51:48.276Z,1143.00
2023-04-11T07:52:48.241Z,1141.00
2023-04-11T07:53:48.207Z,1141.00
2023-04-11T07:54:48.166Z,1132.00
2023-04-11T07:55:48.131Z,1146.00
2023-04-11T07:56:48.092Z,1131.00
2023-04-11T07:57:48.071Z,1138.00
2023-04-11T07:58:48.029Z,1134.00
2023-04-11T07:59:48.020Z,1137.00
2023-04-11T08:00:47.965Z,1126.00
2023-04-11T08:01:48.785Z,1128.00
2023-04-11T08:02:47.979Z,1124.00
2023-04-11T08:03:48.011Z,1115.00
2023-04-11T08:04:47.905Z,1125.00
2023-04-11T08:05:47.788Z,1121.00
2023-04-11T08:06:47.754Z,1108.00
2023-04-11T08:07:47.712Z,1104.00
2023-04-11T08:08:47.670Z,1098.00
2023-04-11T08:09:47.625Z,1103.00
2023-04-11T08:10:47.951Z,1108.00
2023-04-11T08:11:47.562Z,1086.00
2023-04-11T08:12:47.532Z,1081.00
2023-04-11T08:13:47.498Z,1123.00
2023-04-11T08:14:47.473Z,975.00
2023-04-11T08:15:47.453Z,881.00
2023-04-11T08:16:47.432Z,708.00
2023-04-11T08:17:47.410Z,661.00
2023-04-11T08:18:47.319Z,651.00
2023-04-11T08:19:47.282Z,672.00
2023-04-11T08:20:47.826Z,645.00
2023-04-11T08:21:47.261Z,673.00
2023-04-11T08:22:47.213Z,704.00
2023-04-11T08:23:47.403Z,609.00
2023-04-11T08:24:47.103Z,560.00
2023-04-11T08:25:47.067Z,590.00
2023-04-11T08:26:47.031Z,549.00
2023-04-11T08:27:47.023Z,488.00
2023-04-11T08:28:46.951Z,552.00
2023-04-11T08:29:46.908Z,602.00
2023-04-11T08:30:46.899Z,643.00
2023-04-11T08:31:46.852Z,678.00
2023-04-11T08:32:46.849Z,732.00
2023-04-11T08:33:46.795Z,771.00
2023-04-11T08:34:46.749Z,817.00
2023-04-11T08:35:46.727Z,868.00
2023-04-11T08:36:46.686Z,901.00
2023-04-11T08:37:46.682Z,939.00
2023-04-11T08:38:46.610Z,983.00
2023-04-11T08:39:46.562Z,1039.00
2023-04-11T08:40:46.551Z,1071.00
2023-04-11T08:41:46.503Z,1103.00
2023-04-11T08:42:47.361Z,1132.00
2023-04-11T08:43:46.407Z,1152.00
2023-04-11T08:44:46.356Z,1199.00
2023-04-11T08:45:46.384Z,1244.00
2023-04-11T08:46:46.289Z,1284.00
2023-04-11T08:47:46.295Z,1308.00
2023-04-11T08:48:46.225Z,1327.00
2023-04-11T08:49:46.141Z,1384.00
2023-04-11T08:50:46.146Z,1391.00
2023-04-11T08:51:46.126Z,1421.00
2023-04-11T08:52:46.142Z,1447.00
2023-04-11T08:53:46.169Z,1472.00
2023-04-11T08:54:46.177Z,1515.00
2023-04-11T08:55:46.217Z,1557.00
2023-04-11T08:56:46.238Z,1579.00
2023-04-11T08:57:46.233Z,1609.00
2023-04-11T08:58:46.259Z,1630.00
2023-04-11T08:59:46.584Z,1638.00
2023-04-11T09:00:46.295Z,1675.00
2023-04-11T09:01:46.425Z,1702.00
2023-04-11T09:02:46.432Z,1739.00
2023-04-11T09:03:46.537Z,1755.00
2023-04-11T09:04:46.404Z,1782.00
2023-04-11T09:05:46.372Z,1811.00
2023-04-11T09:06:46.397Z,1817.00
2023-04-11T09:07:46.400Z,1813.00
2023-04-11T09:08:46.422Z,1828.00
2023-04-11T09:09:47.264Z,1859.00
2023-04-11T09:10:46.485Z,1868.00
2023-04-11T09:11:46.462Z,1877.00
2023-04-11T09:12:46.471Z,1898.00
2023-04-11T09:13:46.484Z,1918.00
2023-04-11T09:14:46.541Z,1943.00
2023-04-11T09:15:46.509Z,1948.00
2023-04-11T09:16:46.526Z,1989.00
2023-04-11T09:17:46.568Z,1963.00
2023-04-11T09:18:46.811Z,1955.00
2023-04-11T09:19:48.915Z,1998.00
2023-04-11T09:20:47.494Z,2000.00
2023-04-11T09:21:46.453Z,2005.00
2023-04-11T09:22:46.408Z,2012.00
2023-04-11T09:23:46.363Z,2031.00
2023-04-11T09:24:46.321Z,2053.00
2023-04-11T09:25:46.852Z,2049.00
2023-04-11T09:26:46.767Z,2053.00
2023-04-11T09:27:46.192Z,2045.00
2023-04-11T09:28:46.169Z,2042.00
2023-04-11T09:29:46.132Z,2046.00
2023-04-11T09:30:46.229Z,2053.00
2023-04-11T09:31:47.205Z,2055.00
2023-04-11T09:32:46.138Z,2056.00
2023-04-11T09:33:46.043Z,2062.00
2023-04-11T09:34:45.992Z,2069.00
2023-04-11T09:35:45.968Z,2075.00
2023-04-11T09:36:45.930Z,2083.00
2023-04-11T09:37:45.858Z,2072.00
2023-04-11T09:38:45.830Z,2076.00
2023-04-11T09:39:45.808Z,2083.00
2023-04-11T09:40:45.831Z,2093.00
2023-04-11T09:41:45.853Z,2080.00
2023-04-11T09:42:45.877Z,2090.00
2023-04-11T09:43:45.916Z,2085.00
2023-04-11T09:44:45.938Z,2089.00
2023-04-11T09:45:54.085Z,2079.00
2023-04-11T09:46:46.953Z,2080.00
2023-04-11T09:47:45.915Z,2080.00
2023-04-11T09:48:47.114Z,2084.00
2023-04-11T09:49:45.813Z,2085.00
2023-04-11T09:50:45.777Z,2086.00
2023-04-11T09:51:45.738Z,2088.00
2023-04-11T09:52:45.681Z,2091.00
2023-04-11T09:53:45.650Z,2086.00
2023-04-11T09:54:45.636Z,2080.00
2023-04-11T09:55:45.735Z,2079.00
2023-04-11T09:56:45.696Z,2081.00
2023-04-11T09:57:45.781Z,2075.00
2023-04-11T09:58:45.752Z,2088.00
2023-04-11T09:59:45.789Z,2078.00
2023-04-11T10:00:45.823Z,2082.00
2023-04-11T10:01:45.892Z,2082.00
2023-04-11T10:02:46.044Z,2073.00
2023-04-11T10:03:45.899Z,2079.00
2023-04-11T10:04:45.921Z,2069.00
2023-04-11T10:05:45.922Z,2060.00
2023-04-11T10:06:45.957Z,2059.00
2023-04-11T10:07:46.031Z,2057.00
2023-04-11T10:08:46.025Z,2054.00
2023-04-11T10:09:46.059Z,2038.00
2023-04-11T10:10:46.079Z,2037.00
2023-04-11T10:11:46.137Z,2023.00
2023-04-11T10:12:46.097Z,2018.00
2023-04-11T10:13:46.122Z,2019.00
2023-04-11T10:14:46.126Z,2021.00
2023-04-11T10:15:46.105Z,2022.00
2023-04-11T10:16:46.174Z,2010.00
2023-04-11T10:17:46.197Z,2023.00
2023-04-11T10:18:46.159Z,2016.00
2023-04-11T10:19:46.864Z,2014.00
2023-04-11T10:20:46.874Z,2010.00
2023-04-11T10:21:46.859Z,2006.00
2023-04-11T10:22:46.136Z,1991.00
2023-04-11T10:23:46.093Z,2005.00
2023-04-11T10:24:46.134Z,1998.00
2023-04-11T10:25:46.204Z,1984.00
2023-04-11T10:26:47.217Z,1992.00
2023-04-11T10:27:46.217Z,1994.00
2023-04-11T10:28:46.241Z,1984.00
2023-04-11T10:29:46.274Z,1988.00
2023-04-11T10:30:46.293Z,1982.00
2023-04-11T10:31:46.310Z,1988.00
2023-04-11T10:32:46.322Z,1982.00
2023-04-11T10:33:46.866Z,1976.00
2023-04-11T10:34:46.346Z,1973.00
2023-04-11T10:35:46.391Z,1957.00
2023-04-11T10:36:46.389Z,1955.00
2023-04-11T10:37:46.409Z,1970.00
2023-04-11T10:38:46.430Z,1967.00
2023-04-11T10:39:46.445Z,1950.00
2023-04-11T10:40:46.452Z,1941.00
2023-04-11T10:41:46.450Z,1947.00
2023-04-11T10:42:46.455Z,1953.00
2023-04-11T10:43:46.476Z,1950.00
2023-04-11T10:44:46.437Z,1938.00
2023-04-11T10:45:46.417Z,1924.00
2023-04-11T10:46:46.419Z,1911.00
2023-04-11T10:47:46.410Z,1904.00
2023-04-11T10:48:46.404Z,1901.00
2023-04-11T10:49:47.300Z,1902.00
2023-04-11T10:50:46.406Z,1876.00
2023-04-11T10:51:46.404Z,1883.00
2023-04-11T10:52:46.426Z,1878.00
2023-04-11T10:53:46.433Z,1865.00
2023-04-11T10:54:46.433Z,1862.00
2023-04-11T10:55:46.393Z,1852.00
2023-04-11T10:56:46.352Z,1843.00
2023-04-11T10:57:46.348Z,1837.00
2023-04-11T10:58:46.348Z,1845.00
2023-04-11T10:59:46.366Z,1840.00
2023-04-11T11:00:46.386Z,1844.00
2023-04-11T11:01:52.372Z,1839.00
2023-04-11T11:02:47.444Z,1839.00
2023-04-11T11:03:46.523Z,1836.00
2023-04-11T11:04:46.256Z,1843.00
2023-04-11T11:05:46.166Z,1843.00
2023-04-11T11:06:54.540Z,1837.00
2023-04-11T11:07:47.082Z,1839.00
2023-04-11T11:08:46.043Z,1840.00
2023-04-11T11:09:45.984Z,1836.00
2023-04-11T11:10:45.934Z,1839.00
2023-04-11T11:11:45.898Z,1827.00
2023-04-11T11:12:45.865Z,1823.00
2023-04-11T11:13:45.828Z,1815.00
2023-04-11T11:14:45.801Z,1822.00
2023-04-11T11:15:45.764Z,1797.00
2023-04-11T11:16:45.739Z,1797.00
2023-04-11T11:17:45.716Z,1785.00
2023-04-11T11:18:45.635Z,1786.00
2023-04-11T11:19:45.628Z,1772.00
2023-04-11T11:20:45.564Z,1775.00
2023-04-11T11:21:45.505Z,1772.00
2023-04-11T11:22:45.483Z,1734.00
2023-04-11T11:23:45.435Z,1720.00
2023-04-11T11:24:45.392Z,1698.00
2023-04-11T11:25:45.380Z,1696.00
2023-04-11T11:26:45.387Z,1703.00
2023-04-11T11:27:45.392Z,1666.00
2023-04-11T11:28:45.365Z,1703.00
2023-04-11T11:29:45.338Z,1720.00
2023-04-11T11:30:45.293Z,1732.00
2023-04-11T11:31:45.266Z,1740.00
2023-04-11T11:32:45.317Z,1737.00
2023-04-11T11:33:45.248Z,1745.00
2023-04-11T11:34:45.197Z,1740.00
2023-04-11T11:35:45.166Z,1742.00
2023-04-11T11:36:45.208Z,1743.00
2023-04-11T11:37:45.131Z,1739.00
2023-04-11T11:38:45.080Z,1739.00
2023-04-11T11:39:45.030Z,1741.00
2023-04-11T11:40:44.981Z,1737.00
2023-04-11T11:41:44.935Z,1750.00
2023-04-11T11:42:44.926Z,1731.00
2023-04-11T11:43:44.911Z,1731.00
2023-04-11T11:44:44.876Z,1740.00
2023-04-11T11:45:44.878Z,1731.00
2023-04-11T11:46:44.978Z,1713.00
2023-04-11T11:47:44.883Z,1717.00
2023-04-11T11:48:44.806Z,1703.00
2023-04-11T11:49:44.796Z,1701.00
2023-04-11T11:50:44.795Z,1702.00
2023-04-11T11:51:44.779Z,1700.00
2023-04-11T11:52:44.760Z,1692.00
2023-04-11T11:53:44.711Z,1683.00
2023-04-11T11:54:44.702Z,1688.00
2023-04-11T11:55:44.685Z,1677.00
2023-04-11T11:56:44.690Z,1684.00
2023-04-11T11:57:44.703Z,1678.00
2023-04-11T11:58:44.660Z,1675.00
2023-04-11T11:59:44.618Z,1667.00
2023-04-11T12:00:44.603Z,1675.00
2023-04-11T12:01:44.661Z,1665.00
2023-04-11T12:02:44.963Z,1671.00
2023-04-11T12:03:44.789Z,1656.00
2023-04-11T12:04:45.507Z,1654.00
2023-04-11T12:05:44.688Z,1649.00
2023-04-11T12:06:44.719Z,1658.00
2023-04-11T12:07:44.765Z,1664.00
2023-04-11T12:08:46.350Z,1654.00
2023-04-11T12:09:44.782Z,1655.00
2023-04-11T12:10:44.763Z,1641.00
2023-04-11T12:11:44.767Z,1638.00
2023-04-11T12:12:52.915Z,1627.00
2023-04-11T12:13:45.740Z,1628.00
2023-04-11T12:14:44.690Z,1628.00
2023-04-11T12:15:44.659Z,1636.00
2023-04-11T12:16:44.613Z,1622.00
2023-04-11T12:17:45.387Z,1629.00
2023-04-11T12:18:44.546Z,1625.00